sensor_id;sensor_type;location;lat;lon;timestamp;pressure;altitude;pressure_sealevel;temperature;humidity
9899;BME280;4988;49.238;6.698;2023-02-16T00:01:47;100221.31;;;0.58;100.00
9899;BME280;4988;49.238;6.698;2023-02-16T00:04:27;100220.38;;;0.51;100.00
9899;BME280;4988;49.238;6.698;2023-02-16T00:06:54;100217.75;;;0.50;100.00
9899;BME280;4988;49.238;6.698;2023-02-16T00:09:20;100216.00;;;0.48;100.00
9899;BME280;4988;49.238;6.698;2023-02-16T00:11:47;100219.47;;;0.49;100.00
9899;BME280;4988;49.238;6.698;2023-02-16T00:14:34;100217.69;;;0.45;100.00
9899;BME280;4988;49.238;6.698;2023-02-16T00:17:00;100216.91;;;0.51;100.00
9899;BME280;4988;49.238;6.698;2023-02-16T00:19:30;100220.38;;;0.53;99.84
9899;BME280;4988;49.238;6.698;2023-02-16T00:21:58;100223.94;;;0.56;99.40
9899;BME280;4988;49.238;6.698;2023-02-16T00:24:26;100225.75;;;0.60;98.83
9899;BME280;4988;49.238;6.698;2023-02-16T00:26:52;100233.50;;;0.53;99.81
9899;BME280;4988;49.238;6.698;2023-02-16T00:29:25;100227.41;;;0.55;99.70
9899;BME280;4988;49.238;6.698;2023-02-16T00:31:51;100231.72;;;0.52;100.00
9899;BME280;4988;49.238;6.698;2023-02-16T00:36:50;100220.22;;;0.39;99.82
9899;BME280;4988;49.238;6.698;2023-02-16T00:39:16;100217.63;;;0.42;99.44
9899;BME280;4988;49.238;6.698;2023-02-16T00:41:41;100213.28;;;0.41;99.54
9899;BME280;4988;49.238;6.698;2023-02-16T00:44:39;100219.38;;;0.40;99.67
9899;BME280;4988;49.238;6.698;2023-02-16T00:47:18;100219.16;;;0.24;98.97
9899;BME280;4988;49.238;6.698;2023-02-16T00:49:44;100216.47;;;0.18;99.43
9899;BME280;4988;49.238;6.698;2023-02-16T00:54:54;100217.22;;;0.08;99.83
9899;BME280;4988;49.238;6.698;2023-02-16T00:57:20;100212.75;;;0.02;100.00
9899;BME280;4988;49.238;6.698;2023-02-16T00:59:46;100212.84;;;0.08;100.00
9899;BME280;4988;49.238;6.698;2023-02-16T01:02:13;100214.59;;;0.08;100.00
9899;BME280;4988;49.238;6.698;2023-02-16T01:04:39;100212.13;;;0.19;99.65
9899;BME280;4988;49.238;6.698;2023-02-16T01:07:15;100214.78;;;0.23;99.23
9899;BME280;4988;49.238;6.698;2023-02-16T01:10:01;100219.91;;;0.15;99.31
9899;BME280;4988;49.238;6.698;2023-02-16T01:12:45;100214.63;;;0.11;99.73
9899;BME280;4988;49.238;6.698;2023-02-16T01:15:13;100209.34;;;0.06;99.90
9899;BME280;4988;49.238;6.698;2023-02-16T01:17:40;100205.78;;;0.03;100.00
9899;BME280;4988;49.238;6.698;2023-02-16T01:20:26;100207.53;;;0.04;100.00
9899;BME280;4988;49.238;6.698;2023-02-16T01:22:51;100202.38;;;0.10;100.00
9899;BME280;4988;49.238;6.698;2023-02-16T01:25:17;100201.59;;;0.14;100.00
9899;BME280;4988;49.238;6.698;2023-02-16T01:27:43;100205.97;;;0.15;99.78
9899;BME280;4988;49.238;6.698;2023-02-16T01:30:17;100193.66;;;0.11;99.91
9899;BME280;4988;49.238;6.698;2023-02-16T01:32:44;100210.28;;;0.13;100.00
9899;BME280;4988;49.238;6.698;2023-02-16T01:35:30;100201.56;;;0.12;100.00
9899;BME280;4988;49.238;6.698;2023-02-16T01:37:57;100210.31;;;0.16;100.00
9899;BME280;4988;49.238;6.698;2023-02-16T01:40:36;100202.25;;;0.01;99.40
9899;BME280;4988;49.238;6.698;2023-02-16T01:43:25;100205.72;;;-0.04;99.22
9899;BME280;4988;49.238;6.698;2023-02-16T01:45:58;100212.69;;;-0.03;98.55
9899;BME280;4988;49.238;6.698;2023-02-16T01:48:28;100212.56;;;-0.12;99.70
9899;BME280;4988;49.238;6.698;2023-02-16T01:56:15;100200.34;;;-0.13;97.86
9899;BME280;4988;49.238;6.698;2023-02-16T01:58:53;100199.38;;;-0.20;98.53
9899;BME280;4988;49.238;6.698;2023-02-16T02:01:40;100193.16;;;-0.26;99.78
9899;BME280;4988;49.238;6.698;2023-02-16T02:04:18;100187.06;;;-0.25;100.00
9899;BME280;4988;49.238;6.698;2023-02-16T02:07:03;100195.00;;;-0.19;99.68
9899;BME280;4988;49.238;6.698;2023-02-16T02:09:36;100193.41;;;-0.08;98.71
9899;BME280;4988;49.238;6.698;2023-02-16T02:12:22;100186.41;;;-0.12;99.26
9899;BME280;4988;49.238;6.698;2023-02-16T02:14:49;100187.16;;;-0.18;99.78
9899;BME280;4988;49.238;6.698;2023-02-16T02:17:17;100191.56;;;-0.15;99.30
9899;BME280;4988;49.238;6.698;2023-02-16T02:20:40;100188.84;;;-0.24;99.50
9899;BME280;4988;49.238;6.698;2023-02-16T02:31:00;100184.38;;;-0.31;99.64
9899;BME280;4988;49.238;6.698;2023-02-16T02:33:51;100181.78;;;-0.28;98.79
9899;BME280;4988;49.238;6.698;2023-02-16T02:41:29;100179.97;;;-0.34;99.12
9899;BME280;4988;49.238;6.698;2023-02-16T02:44:21;100185.13;;;-0.37;99.83
9899;BME280;4988;49.238;6.698;2023-02-16T02:46:48;100184.28;;;-0.35;100.00
9899;BME280;4988;49.238;6.698;2023-02-16T02:49:14;100191.25;;;-0.37;99.92
9899;BME280;4988;49.238;6.698;2023-02-16T02:51:39;100179.94;;;-0.36;99.03
9899;BME280;4988;49.238;6.698;2023-02-16T02:57:03;100180.75;;;-0.38;97.79
9899;BME280;4988;49.238;6.698;2023-02-16T02:59:55;100171.91;;;-0.48;98.10
9899;BME280;4988;49.238;6.698;2023-02-16T03:02:44;100170.06;;;-0.55;98.22
9899;BME280;4988;49.238;6.698;2023-02-16T03:05:12;100168.28;;;-0.58;98.65
9899;BME280;4988;49.238;6.698;2023-02-16T03:07:41;100168.09;;;-0.69;98.64
9899;BME280;4988;49.238;6.698;2023-02-16T03:10:23;100180.06;;;-0.83;99.16
9899;BME280;4988;49.238;6.698;2023-02-16T03:13:16;100174.50;;;-1.02;99.49
9899;BME280;4988;49.238;6.698;2023-02-16T03:15:44;100181.38;;;-1.07;100.00
9899;BME280;4988;49.238;6.698;2023-02-16T03:18:11;100177.97;;;-1.03;100.00
9899;BME280;4988;49.238;6.698;2023-02-16T03:20:57;100176.31;;;-0.98;100.00
9899;BME280;4988;49.238;6.698;2023-02-16T03:23:41;100176.31;;;-0.98;100.00
9899;BME280;4988;49.238;6.698;2023-02-16T03:26:27;100164.16;;;-0.95;100.00
9899;BME280;4988;49.238;6.698;2023-02-16T03:29:13;100174.72;;;-0.89;100.00
9899;BME280;4988;49.238;6.698;2023-02-16T03:31:43;100173.69;;;-0.98;100.00
9899;BME280;4988;49.238;6.698;2023-02-16T03:34:10;100170.75;;;-1.16;100.00
9899;BME280;4988;49.238;6.698;2023-02-16T03:36:37;100164.56;;;-1.21;100.00
9899;BME280;4988;49.238;6.698;2023-02-16T03:39:04;100168.97;;;-1.20;100.00
9899;BME280;4988;49.238;6.698;2023-02-16T03:41:32;100165.50;;;-1.19;100.00
9899;BME280;4988;49.238;6.698;2023-02-16T03:43:58;100172.59;;;-1.12;100.00
9899;BME280;4988;49.238;6.698;2023-02-16T03:46:23;100170.97;;;-1.05;100.00
9899;BME280;4988;49.238;6.698;2023-02-16T03:48:49;100165.81;;;-1.01;100.00
9899;BME280;4988;49.238;6.698;2023-02-16T03:51:14;100159.88;;;-0.90;99.84
9899;BME280;4988;49.238;6.698;2023-02-16T03:53:39;100158.94;;;-0.95;99.08
9899;BME280;4988;49.238;6.698;2023-02-16T03:56:05;100167.59;;;-1.00;98.69
9899;BME280;4988;49.238;6.698;2023-02-16T03:58:30;100164.03;;;-1.03;98.88
9899;BME280;4988;49.238;6.698;2023-02-16T04:00:57;100161.47;;;-0.99;98.65
9899;BME280;4988;49.238;6.698;2023-02-16T04:03:23;100161.44;;;-1.02;98.48
9899;BME280;4988;49.238;6.698;2023-02-16T04:05:48;100162.28;;;-1.04;99.35
9899;BME280;4988;49.238;6.698;2023-02-16T04:08:13;100165.66;;;-1.10;99.90
9899;BME280;4988;49.238;6.698;2023-02-16T04:10:39;100170.03;;;-1.09;100.00
9899;BME280;4988;49.238;6.698;2023-02-16T04:13:05;100171.78;;;-1.08;100.00
9899;BME280;4988;49.238;6.698;2023-02-16T04:15:30;100170.13;;;-1.04;99.74
9899;BME280;4988;49.238;6.698;2023-02-16T04:17:56;100170.13;;;-1.03;99.34
9899;BME280;4988;49.238;6.698;2023-02-16T04:20:28;100167.53;;;-1.03;99.32
9899;BME280;4988;49.238;6.698;2023-02-16T04:22:54;100169.22;;;-1.05;99.77
9899;BME280;4988;49.238;6.698;2023-02-16T04:25:20;100170.97;;;-1.04;99.55
9899;BME280;4988;49.238;6.698;2023-02-16T04:27:45;100170.03;;;-1.07;99.38
9899;BME280;4988;49.238;6.698;2023-02-16T04:30:13;100178.81;;;-1.04;99.30
9899;BME280;4988;49.238;6.698;2023-02-16T04:32:39;100168.31;;;-1.08;99.25
9899;BME280;4988;49.238;6.698;2023-02-16T04:35:05;100170.13;;;-1.04;99.06
9899;BME280;4988;49.238;6.698;2023-02-16T04:37:31;100171.78;;;-1.08;98.77
9899;BME280;4988;49.238;6.698;2023-02-16T04:39:56;100170.09;;;-1.06;98.63
9899;BME280;4988;49.238;6.698;2023-02-16T04:42:22;100171.09;;;-0.98;97.41
9899;BME280;4988;49.238;6.698;2023-02-16T04:44:47;100177.94;;;-1.04;97.29
9899;BME280;4988;49.238;6.698;2023-02-16T04:47:12;100184.88;;;-1.05;97.39
9899;BME280;4988;49.238;6.698;2023-02-16T04:49:38;100182.25;;;-1.08;96.98
9899;BME280;4988;49.238;6.698;2023-02-16T04:52:04;100179.50;;;-1.14;97.78
9899;BME280;4988;49.238;6.698;2023-02-16T04:54:30;100169.88;;;-1.18;98.27
9899;BME280;4988;49.238;6.698;2023-02-16T04:56:56;100172.50;;;-1.18;98.77
9899;BME280;4988;49.238;6.698;2023-02-16T04:59:21;100167.25;;;-1.18;99.00
9899;BME280;4988;49.238;6.698;2023-02-16T05:01:47;100175.16;;;-1.14;98.26
9899;BME280;4988;49.238;6.698;2023-02-16T05:04:13;100172.53;;;-1.15;98.39
9899;BME280;4988;49.238;6.698;2023-02-16T05:06:38;100169.06;;;-1.14;98.11
9899;BME280;4988;49.238;6.698;2023-02-16T05:09:04;100170.84;;;-1.13;97.87
9899;BME280;4988;49.238;6.698;2023-02-16T05:11:30;100167.38;;;-1.12;97.19
9899;BME280;4988;49.238;6.698;2023-02-16T05:14:25;100158.66;;;-1.11;96.66
9899;BME280;4988;49.238;6.698;2023-02-16T05:19:32;100168.97;;;-1.20;96.57
9899;BME280;4988;49.238;6.698;2023-02-16T05:21:57;100172.31;;;-1.27;97.02
9899;BME280;4988;49.238;6.698;2023-02-16T05:24:23;100170.59;;;-1.25;97.60
9899;BME280;4988;49.238;6.698;2023-02-16T05:26:48;100174.06;;;-1.26;98.00
9899;BME280;4988;49.238;6.698;2023-02-16T05:29:14;100172.22;;;-1.32;98.00
9899;BME280;4988;49.238;6.698;2023-02-16T05:31:39;100167.81;;;-1.35;97.71
9899;BME280;4988;49.238;6.698;2023-02-16T05:34:04;100169.56;;;-1.35;97.58
9899;BME280;4988;49.238;6.698;2023-02-16T05:36:29;100170.50;;;-1.32;97.27
9899;BME280;4988;49.238;6.698;2023-02-16T05:38:55;100168.53;;;-1.42;98.06
9899;BME280;4988;49.238;6.698;2023-02-16T05:41:21;100174.88;;;-1.31;97.75
9899;BME280;4988;49.238;6.698;2023-02-16T05:43:53;100159.13;;;-1.34;98.26
9899;BME280;4988;49.238;6.698;2023-02-16T05:46:21;100166.88;;;-1.37;98.50
9899;BME280;4988;49.238;6.698;2023-02-16T05:48:47;100170.41;;;-1.35;98.71
9899;BME280;4988;49.238;6.698;2023-02-16T05:51:13;100182.63;;;-1.34;98.42
9899;BME280;4988;49.238;6.698;2023-02-16T05:53:38;100191.41;;;-1.30;97.68
9899;BME280;4988;49.238;6.698;2023-02-16T05:56:05;100182.56;;;-1.37;97.50
9899;BME280;4988;49.238;6.698;2023-02-16T05:58:30;100185.25;;;-1.34;97.66
9899;BME280;4988;49.238;6.698;2023-02-16T06:00:55;100174.88;;;-1.31;96.31
9899;BME280;4988;49.238;6.698;2023-02-16T06:03:22;100185.09;;;-1.41;96.38
9899;BME280;4988;49.238;6.698;2023-02-16T06:05:55;100189.44;;;-1.42;96.87
9899;BME280;4988;49.238;6.698;2023-02-16T06:08:20;100187.50;;;-1.52;97.44
9899;BME280;4988;49.238;6.698;2023-02-16T06:10:48;100183.22;;;-1.49;98.09
9899;BME280;4988;49.238;6.698;2023-02-16T06:13:14;100182.38;;;-1.48;98.16
9899;BME280;4988;49.238;6.698;2023-02-16T06:15:39;100183.38;;;-1.39;96.72
9899;BME280;4988;49.238;6.698;2023-02-16T06:18:05;100193.66;;;-1.49;96.62
9899;BME280;4988;49.238;6.698;2023-02-16T06:20:30;100204.84;;;-1.54;96.68
9899;BME280;4988;49.238;6.698;2023-02-16T06:22:55;100213.66;;;-1.49;96.86
9899;BME280;4988;49.238;6.698;2023-02-16T06:25:21;100210.16;;;-1.51;97.72
9899;BME280;4988;49.238;6.698;2023-02-16T06:27:46;100207.66;;;-1.45;98.28
9899;BME280;4988;49.238;6.698;2023-02-16T06:30:12;100212.81;;;-1.48;97.39
9899;BME280;4988;49.238;6.698;2023-02-16T06:32:37;100210.91;;;-1.55;97.33
9899;BME280;4988;49.238;6.698;2023-02-16T06:35:03;100219.53;;;-1.61;97.05
9899;BME280;4988;49.238;6.698;2023-02-16T06:37:28;100218.63;;;-1.62;97.21
9899;BME280;4988;49.238;6.698;2023-02-16T06:39:54;100220.25;;;-1.67;96.61
9899;BME280;4988;49.238;6.698;2023-02-16T06:42:19;100222.69;;;-1.76;98.12
9899;BME280;4988;49.238;6.698;2023-02-16T06:44:44;100227.97;;;-1.73;98.18
9899;BME280;4988;49.238;6.698;2023-02-16T06:47:10;100227.03;;;-1.75;99.16
9899;BME280;4988;49.238;6.698;2023-02-16T06:49:35;100227.34;;;-1.63;98.96
9899;BME280;4988;49.238;6.698;2023-02-16T06:52:00;100224.78;;;-1.58;98.09
9899;BME280;4988;49.238;6.698;2023-02-16T06:54:26;100237.81;;;-1.59;97.64
9899;BME280;4988;49.238;6.698;2023-02-16T06:56:51;100233.56;;;-1.54;97.53
9899;BME280;4988;49.238;6.698;2023-02-16T06:59:16;100235.38;;;-1.52;97.86
9899;BME280;4988;49.238;6.698;2023-02-16T07:01:41;100229.41;;;-1.46;97.60
9899;BME280;4988;49.238;6.698;2023-02-16T07:04:07;100226.72;;;-1.49;97.76
9899;BME280;4988;49.238;6.698;2023-02-16T07:06:33;100229.31;;;-1.49;97.93
9899;BME280;4988;49.238;6.698;2023-02-16T07:08:58;100225.03;;;-1.46;97.96
9899;BME280;4988;49.238;6.698;2023-02-16T07:11:24;100224.22;;;-1.43;97.50
9899;BME280;4988;49.238;6.698;2023-02-16T07:13:50;100227.97;;;-1.32;97.50
9899;BME280;4988;49.238;6.698;2023-02-16T07:16:15;100225.47;;;-1.25;96.51
9899;BME280;4988;49.238;6.698;2023-02-16T07:18:41;100229.84;;;-1.24;96.24
9899;BME280;4988;49.238;6.698;2023-02-16T07:21:06;100231.34;;;-1.36;96.55
9899;BME280;4988;49.238;6.698;2023-02-16T07:23:32;100233.00;;;-1.39;97.44
9899;BME280;4988;49.238;6.698;2023-02-16T07:25:58;100230.44;;;-1.38;98.01
9899;BME280;4988;49.238;6.698;2023-02-16T07:28:24;100228.81;;;-1.33;98.42
9899;BME280;4988;49.238;6.698;2023-02-16T07:30:49;100237.38;;;-1.38;98.22
9899;BME280;4988;49.238;6.698;2023-02-16T07:33:15;100236.44;;;-1.42;98.38
9899;BME280;4988;49.238;6.698;2023-02-16T07:35:41;100234.75;;;-1.40;98.28
9899;BME280;4988;49.238;6.698;2023-02-16T07:38:07;100242.59;;;-1.40;98.21
9899;BME280;4988;49.238;6.698;2023-02-16T07:40:32;100245.94;;;-1.46;97.74
9899;BME280;4988;49.238;6.698;2023-02-16T07:43:02;100253.63;;;-1.53;98.13
9899;BME280;4988;49.238;6.698;2023-02-16T07:45:29;100243.84;;;-1.64;99.13
9899;BME280;4988;49.238;6.698;2023-02-16T07:47:56;100251.81;;;-1.57;98.94
9899;BME280;4988;49.238;6.698;2023-02-16T07:50:22;100246.75;;;-1.48;98.94
9899;BME280;4988;49.238;6.698;2023-02-16T07:52:47;100241.50;;;-1.51;99.57
9899;BME280;4988;49.238;6.698;2023-02-16T07:55:12;100239.91;;;-1.43;99.46
9899;BME280;4988;49.238;6.698;2023-02-16T07:57:38;100238.22;;;-1.39;99.54
9899;BME280;4988;49.238;6.698;2023-02-16T08:00:05;100238.44;;;-1.28;99.53
9899;BME280;4988;49.238;6.698;2023-02-16T08:02:32;100236.84;;;-1.22;99.71
9899;BME280;4988;49.238;6.698;2023-02-16T08:04:58;100233.34;;;-1.22;99.77
9899;BME280;4988;49.238;6.698;2023-02-16T08:07:24;100245.47;;;-1.26;100.00
9899;BME280;4988;49.238;6.698;2023-02-16T08:09:49;100242.72;;;-1.32;100.00
9899;BME280;4988;49.238;6.698;2023-02-16T08:12:15;100244.44;;;-1.34;100.00
9899;BME280;4988;49.238;6.698;2023-02-16T08:14:41;100251.41;;;-1.33;100.00
9899;BME280;4988;49.238;6.698;2023-02-16T08:17:08;100248.97;;;-1.25;100.00
9899;BME280;4988;49.238;6.698;2023-02-16T08:19:34;100247.47;;;-1.11;100.00
9899;BME280;4988;49.238;6.698;2023-02-16T08:22:00;100242.63;;;-0.92;100.00
9899;BME280;4988;49.238;6.698;2023-02-16T08:24:26;100246.56;;;-0.66;100.00
9899;BME280;4988;49.238;6.698;2023-02-16T08:26:52;100241.66;;;-0.47;100.00
9899;BME280;4988;49.238;6.698;2023-02-16T08:29:19;100248.91;;;-0.30;100.00
9899;BME280;4988;49.238;6.698;2023-02-16T08:31:45;100249.97;;;-0.18;100.00
9899;BME280;4988;49.238;6.698;2023-02-16T08:34:12;100251.16;;;0.02;100.00
9899;BME280;4988;49.238;6.698;2023-02-16T08:36:38;100252.22;;;0.16;100.00
9899;BME280;4988;49.238;6.698;2023-02-16T08:39:16;100251.56;;;0.32;100.00
9899;BME280;4988;49.238;6.698;2023-02-16T08:41:44;100234.41;;;0.55;99.98
9899;BME280;4988;49.238;6.698;2023-02-16T08:44:10;100238.09;;;0.71;100.00
9899;BME280;4988;49.238;6.698;2023-02-16T08:46:37;100239.13;;;0.85;100.00
9899;BME280;4988;49.238;6.698;2023-02-16T08:49:04;100246.28;;;1.00;100.00
9899;BME280;4988;49.238;6.698;2023-02-16T08:51:32;100249.88;;;1.11;100.00
9899;BME280;4988;49.238;6.698;2023-02-16T08:54:03;100242.16;;;1.25;99.99
9899;BME280;4988;49.238;6.698;2023-02-16T08:56:29;100244.00;;;1.36;99.58
9899;BME280;4988;49.238;6.698;2023-02-16T08:58:55;100244.19;;;1.56;99.25
9899;BME280;4988;49.238;6.698;2023-02-16T09:01:21;100239.91;;;1.67;98.37
9899;BME280;4988;49.238;6.698;2023-02-16T09:03:48;100232.97;;;1.79;97.91
9899;BME280;4988;49.238;6.698;2023-02-16T09:06:15;100237.44;;;1.89;98.26
9899;BME280;4988;49.238;6.698;2023-02-16T09:08:41;100228.78;;;2.04;98.59
9899;BME280;4988;49.238;6.698;2023-02-16T09:11:11;100228.91;;;2.19;98.78
9899;BME280;4988;49.238;6.698;2023-02-16T09:13:37;100229.84;;;2.35;98.38
9899;BME280;4988;49.238;6.698;2023-02-16T09:16:05;100227.28;;;2.49;97.98
9899;BME280;4988;49.238;6.698;2023-02-16T09:18:31;100222.06;;;2.63;97.42
9899;BME280;4988;49.238;6.698;2023-02-16T09:20:57;100221.25;;;2.77;97.49
9899;BME280;4988;49.238;6.698;2023-02-16T09:23:27;100229.19;;;2.92;96.96
9899;BME280;4988;49.238;6.698;2023-02-16T09:25:52;100223.94;;;2.98;96.59
9899;BME280;4988;49.238;6.698;2023-02-16T09:28:17;100222.19;;;3.05;96.94
9899;BME280;4988;49.238;6.698;2023-02-16T09:30:43;100221.34;;;3.14;96.32
9899;BME280;4988;49.238;6.698;2023-02-16T09:33:08;100216.94;;;3.19;97.23
9899;BME280;4988;49.238;6.698;2023-02-16T09:35:34;100215.22;;;3.32;97.17
9899;BME280;4988;49.238;6.698;2023-02-16T09:38:02;100228.38;;;3.41;96.61
9899;BME280;4988;49.238;6.698;2023-02-16T09:40:27;100219.63;;;3.47;96.02
9899;BME280;4988;49.238;6.698;2023-02-16T09:45:21;100213.50;;;3.59;96.34
9899;BME280;4988;49.238;6.698;2023-02-16T09:47:50;100216.09;;;3.68;96.55
9899;BME280;4988;49.238;6.698;2023-02-16T09:50:23;100218.72;;;3.74;96.39
9899;BME280;4988;49.238;6.698;2023-02-16T09:55:31;100224.00;;;3.90;96.26
9899;BME280;4988;49.238;6.698;2023-02-16T09:58:10;100216.97;;;3.95;95.52
9899;BME280;4988;49.238;6.698;2023-02-16T10:00:42;100219.59;;;3.99;95.60
9899;BME280;4988;49.238;6.698;2023-02-16T10:08:28;100218.63;;;4.24;96.26
9899;BME280;4988;49.238;6.698;2023-02-16T10:15:59;100214.16;;;4.54;94.78
9899;BME280;4988;49.238;6.698;2023-02-16T10:18:31;100218.53;;;4.59;94.08
9899;BME280;4988;49.238;6.698;2023-02-16T10:21:01;100212.34;;;4.65;93.93
9899;BME280;4988;49.238;6.698;2023-02-16T10:28:53;100199.91;;;4.90;93.15
9899;BME280;4988;49.238;6.698;2023-02-16T10:31:33;100198.13;;;4.97;93.07
9899;BME280;4988;49.238;6.698;2023-02-16T10:39:13;100187.41;;;5.22;92.84
9899;BME280;4988;49.238;6.698;2023-02-16T10:41:45;100184.69;;;5.31;92.66
9899;BME280;4988;49.238;6.698;2023-02-16T10:44:30;100189.00;;;5.43;92.54
9899;BME280;4988;49.238;6.698;2023-02-16T10:47:02;100184.56;;;5.50;92.58
9899;BME280;4988;49.238;6.698;2023-02-16T10:49:30;100186.28;;;5.54;92.50
9899;BME280;4988;49.238;6.698;2023-02-16T10:51:58;100191.47;;;5.64;92.62
9899;BME280;4988;49.238;6.698;2023-02-16T10:54:28;100193.19;;;5.67;92.14
9899;BME280;4988;49.238;6.698;2023-02-16T10:56:57;100194.03;;;5.72;93.00
9899;BME280;4988;49.238;6.698;2023-02-16T11:01:56;100193.00;;;5.89;92.11
9899;BME280;4988;49.238;6.698;2023-02-16T11:04:37;100192.03;;;5.96;92.29
9899;BME280;4988;49.238;6.698;2023-02-16T11:07:15;100191.03;;;6.09;91.97
9899;BME280;4988;49.238;6.698;2023-02-16T11:09:43;100196.25;;;6.19;92.27
9899;BME280;4988;49.238;6.698;2023-02-16T11:14:39;100190.78;;;6.36;92.35
9899;BME280;4988;49.238;6.698;2023-02-16T11:17:11;100179.22;;;6.41;90.99
9899;BME280;4988;49.238;6.698;2023-02-16T11:19:51;100190.59;;;6.50;91.20
9899;BME280;4988;49.238;6.698;2023-02-16T11:22:31;100191.38;;;6.56;90.68
9899;BME280;4988;49.238;6.698;2023-02-16T11:25:17;100187.72;;;6.68;90.17
9899;BME280;4988;49.238;6.698;2023-02-16T11:27:50;100179.66;;;6.78;89.57
9899;BME280;4988;49.238;6.698;2023-02-16T11:30:26;100185.75;;;6.84;88.72
9899;BME280;4988;49.238;6.698;2023-02-16T11:32:53;100182.91;;;6.97;88.39
9899;BME280;4988;49.238;6.698;2023-02-16T11:35:20;100188.03;;;7.09;87.94
9899;BME280;4988;49.238;6.698;2023-02-16T11:37:46;100181.53;;;7.30;87.07
9899;BME280;4988;49.238;6.698;2023-02-16T11:40:21;100183.16;;;7.40;86.86
9899;BME280;4988;49.238;6.698;2023-02-16T11:42:50;100174.06;;;7.55;85.63
9899;BME280;4988;49.238;6.698;2023-02-16T11:45:35;100171.28;;;7.63;85.69
9899;BME280;4988;49.238;6.698;2023-02-16T11:48:04;100168.38;;;7.77;85.28
9899;BME280;4988;49.238;6.698;2023-02-16T11:51:00;100166.41;;;7.88;84.58
9899;BME280;4988;49.238;6.698;2023-02-16T11:53:30;100160.88;;;8.01;83.63
9899;BME280;4988;49.238;6.698;2023-02-16T11:56:34;100159.53;;;8.24;82.24
9899;BME280;4988;49.238;6.698;2023-02-16T11:59:19;100148.50;;;8.47;82.49
9899;BME280;4988;49.238;6.698;2023-02-16T12:02:25;100142.75;;;8.68;81.70
9899;BME280;4988;49.238;6.698;2023-02-16T12:11:10;100131.94;;;9.50;75.68
9899;BME280;4988;49.238;6.698;2023-02-16T12:13:58;100136.69;;;9.72;73.82
9899;BME280;4988;49.238;6.698;2023-02-16T12:16:39;100132.78;;;9.85;74.41
9899;BME280;4988;49.238;6.698;2023-02-16T12:21:51;100121.41;;;10.13;71.98
9899;BME280;4988;49.238;6.698;2023-02-16T12:27:08;100110.94;;;10.38;70.38
9899;BME280;4988;49.238;6.698;2023-02-16T12:29:48;100110.75;;;10.44;70.21
9899;BME280;4988;49.238;6.698;2023-02-16T12:32:32;100109.88;;;10.44;70.61
9899;BME280;4988;49.238;6.698;2023-02-16T12:38:22;100102.81;;;10.43;69.95
9899;BME280;4988;49.238;6.698;2023-02-16T12:43:33;100091.06;;;10.50;70.23
9899;BME280;4988;49.238;6.698;2023-02-16T12:46:19;100083.03;;;10.52;70.28
9899;BME280;4988;49.238;6.698;2023-02-16T12:48:50;100075.16;;;10.49;70.43
9899;BME280;4988;49.238;6.698;2023-02-16T12:51:21;100071.56;;;10.50;71.01
9899;BME280;4988;49.238;6.698;2023-02-16T12:56:41;100067.97;;;10.51;70.38
9899;BME280;4988;49.238;6.698;2023-02-16T13:02:15;100052.88;;;10.51;69.82
9899;BME280;4988;49.238;6.698;2023-02-16T13:04:49;100038.47;;;10.58;71.03
9899;BME280;4988;49.238;6.698;2023-02-16T13:07:28;100042.13;;;10.54;70.48
9899;BME280;4988;49.238;6.698;2023-02-16T13:10:03;100045.69;;;10.55;70.07
9899;BME280;4988;49.238;6.698;2023-02-16T13:12:50;100041.25;;;10.54;70.70
9899;BME280;4988;49.238;6.698;2023-02-16T13:15:38;100047.56;;;10.51;70.63
9899;BME280;4988;49.238;6.698;2023-02-16T13:18:21;100052.09;;;10.48;70.48
9899;BME280;4988;49.238;6.698;2023-02-16T13:20:52;100056.56;;;10.47;70.47
9899;BME280;4988;49.238;6.698;2023-02-16T13:31:31;100059.03;;;10.53;71.49
9899;BME280;4988;49.238;6.698;2023-02-16T13:39:40;100051.19;;;10.77;70.00
9899;BME280;4988;49.238;6.698;2023-02-16T13:45:30;100042.28;;;10.78;69.95
9899;BME280;4988;49.238;6.698;2023-02-16T13:47:57;100045.94;;;10.74;70.62
9899;BME280;4988;49.238;6.698;2023-02-16T13:52:49;100046.25;;;10.65;70.87
9899;BME280;4988;49.238;6.698;2023-02-16T13:55:31;100055.25;;;10.60;71.13
9899;BME280;4988;49.238;6.698;2023-02-16T13:58:10;100057.19;;;10.55;72.78
9899;BME280;4988;49.238;6.698;2023-02-16T14:00:50;100059.06;;;10.52;72.38
9899;BME280;4988;49.238;6.698;2023-02-16T14:05:47;100063.00;;;10.40;75.03
9899;BME280;4988;49.238;6.698;2023-02-16T14:08:22;100053.41;;;10.33;76.90
9899;BME280;4988;49.238;6.698;2023-02-16T14:13:33;100050.09;;;10.24;79.07
9899;BME280;4988;49.238;6.698;2023-02-16T14:16:25;100038.75;;;10.19;80.73
9899;BME280;4988;49.238;6.698;2023-02-16T14:19:00;100034.50;;;10.12;79.59
9899;BME280;4988;49.238;6.698;2023-02-16T14:21:31;100033.78;;;10.07;81.25
9899;BME280;4988;49.238;6.698;2023-02-16T14:23:59;100025.06;;;10.02;80.39
9899;BME280;4988;49.238;6.698;2023-02-16T14:26:25;100020.66;;;10.01;81.43
9899;BME280;4988;49.238;6.698;2023-02-16T14:31:27;100021.50;;;10.03;82.42
9899;BME280;4988;49.238;6.698;2023-02-16T14:34:03;100021.41;;;10.06;81.95
9899;BME280;4988;49.238;6.698;2023-02-16T14:36:32;100015.22;;;10.05;82.39
9899;BME280;4988;49.238;6.698;2023-02-16T14:38:59;100019.69;;;10.03;83.17
9899;BME280;4988;49.238;6.698;2023-02-16T14:41:31;100009.06;;;10.03;83.19
9899;BME280;4988;49.238;6.698;2023-02-16T14:44:19;100010.88;;;10.03;83.28
9899;BME280;4988;49.238;6.698;2023-02-16T14:47:04;100015.09;;;10.08;81.70
9899;BME280;4988;49.238;6.698;2023-02-16T14:52:45;100020.38;;;10.10;81.58
9899;BME280;4988;49.238;6.698;2023-02-16T14:55:37;100017.78;;;10.08;82.39
9899;BME280;4988;49.238;6.698;2023-02-16T14:58:46;100017.78;;;10.08;81.28
9899;BME280;4988;49.238;6.698;2023-02-16T15:01:16;100021.34;;;10.07;81.40
9899;BME280;4988;49.238;6.698;2023-02-16T15:03:50;100017.03;;;10.03;80.90
9899;BME280;4988;49.238;6.698;2023-02-16T15:06:31;100013.59;;;10.00;81.48
9899;BME280;4988;49.238;6.698;2023-02-16T15:09:02;100017.16;;;9.98;81.70
9899;BME280;4988;49.238;6.698;2023-02-16T15:11:30;100018.19;;;9.94;82.33
9899;BME280;4988;49.238;6.698;2023-02-16T15:14:08;100015.59;;;9.93;82.33
9899;BME280;4988;49.238;6.698;2023-02-16T15:16:37;100017.47;;;9.89;82.65
9899;BME280;4988;49.238;6.698;2023-02-16T15:19:09;100023.56;;;9.93;81.88
9899;BME280;4988;49.238;6.698;2023-02-16T15:21:36;100018.25;;;9.91;81.98
9899;BME280;4988;49.238;6.698;2023-02-16T15:24:01;100019.16;;;9.90;82.23
9899;BME280;4988;49.238;6.698;2023-02-16T15:26:34;100008.53;;;9.90;82.34